Aérodrome :
LOGIN :

S'inscrire | Disclaimer

   EN    FR    IT 

 










Légende :    VFR   VFR Marginal   IFR   IFR Intensif   IFR Très Intensif
Visi : 
Plafond : 
>= 8 km
>= 3000ft
5 à 8 km
1000 à 3000 ft
1500m à 5 km
500 à 1000 ft
800 à 1500m
200 à 500 ft
< 800m
< 200 ft
Symboles :   Orages  Brouillard  Fortes neiges  Fortes précipitations  Vent > 20 kt
SIGMETs :   Divers  Orages  Givrage  Turbulence  Onde Orograph.  Cendres Volcan.






- Altitude de l'aérodrome : 433 ft
- Code IATA : CCF


LFMK - Carcassonne

DERNIER METAR :
  • 131430Z AUTO 30016KT 9999 FEW031 SCT058 11/03 Q1009 NOSIG

METARs EXPIRÉS :
  • 131400Z AUTO 30013KT 9999 FEW035 SCT058 11/06 Q1008 NOSIG
  • 131330Z AUTO 28013KT 9999 FEW035/// BKN050/// OVC062/// ///TCU 11/06 Q1009 BECMG BKN050 BKN070
  • 131230Z AUTO 30013KT 270V330 9999 BKN032 BKN042 OVC048 10/06 Q1008 NOSIG
  • 131200Z AUTO 31013KT 280V340 9999 BKN023 OVC030 10/07 Q1008 NOSIG
  • 131130Z AUTO 30013KT 9999 BKN020 BKN033 OVC040 11/07 Q1008 NOSIG

TAF TAF LFMK
Valide du 13 à 09h jusqu'au 14 à 09h UTC


130800Z 1309/1409 27010KT 9999 BKN050 BKN070
TEMPO 1321/1403 VRB05KT 4500 BR NSC
BECMG 1403/1406 RA OVC030



MET'MAP, la Météo Aéronautique d'un coup d'oeil ! - Copyright ORBIFLY Décembre 2007 - Disclaimer

ORBIFLY MET'MAP TEAM :

Programmation & Développement : Alexandra Zaïnal
Conception & Développement : Baudouin d'Aumeries
Co-Programmation & Développement : Marc-Olivier Méhu
Soutien technique & logistique : Manuel Goepfert

Contact : metmap@orbifly.com




SOURCES & CREDITS :

   NOAA